Time;durP1;ratioP1;P1;durP2;ratioP2;P2;SDS_P1;SDS_P2;PMS_P1;PMS_P2;Temp;Humidity;BMP_temperature;BMP_pressure;BME280_temperature;BME280_humidity;BME280_pressure;Samples;Min_cycle;Max_cycle;Signal;HPM_P1;HPM_P2
2023/10/04 00:00:20;;;;;;;;;;;12.70;99.90;;;;;;2617154;54;20165;-69
2023/10/04 00:02:54;;;;;;;;;;;12.70;99.90;;;;;;2617929;46;19962;-70
2023/10/04 00:05:25;;;;;;;;;;;12.70;99.90;;;;;;2617580;54;20476;-70
2023/10/04 00:07:55;;;;;;;;;;;12.70;99.90;;;;;;2617047;54;20032;-70
2023/10/04 00:10:25;;;;;;;;;;;12.70;99.90;;;;;;2616287;49;19955;-71
2023/10/04 00:12:55;;;;;;;;;;;12.60;99.90;;;;;;2617806;47;19939;-71
2023/10/04 00:15:27;;;;;;;;;;;12.60;99.90;;;;;;2618383;39;20396;-70
2023/10/04 00:17:59;;;;;;;;;;;12.60;99.90;;;;;;2617079;54;19945;-69
2023/10/04 00:20:34;;;;;;;;;;;12.50;99.90;;;;;;2617047;47;19989;-70
2023/10/04 00:23:05;;;;;;;;;;;12.50;99.90;;;;;;2616665;47;20473;-70
2023/10/04 00:25:37;;;;;;;;;;;12.40;99.90;;;;;;2617341;46;20445;-70
2023/10/04 00:28:07;;;;;;;;;;;12.40;99.90;;;;;;2617221;54;19945;-70
2023/10/04 00:30:37;;;;;;;;;;;12.30;99.90;;;;;;2616172;54;20460;-70
2023/10/04 00:33:09;;;;;;;;;;;12.40;99.90;;;;;;2616429;54;19954;-71
2023/10/04 00:35:40;;;;;;;;;;;12.40;99.90;;;;;;2616741;54;19950;-71
2023/10/04 00:38:13;;;;;;;;;;;12.40;99.90;;;;;;2616219;54;19947;-70
2023/10/04 00:40:44;;;;;;;;;;;12.40;99.90;;;;;;2616509;39;20327;-70
2023/10/04 00:43:15;;;;;;;;;;;12.40;99.90;;;;;;2616347;39;20355;-70
2023/10/04 00:45:47;;;;;;;;;;;12.40;99.90;;;;;;2617041;54;19938;-70
2023/10/04 00:48:23;;;;;;;;;;;12.40;99.90;;;;;;2616619;54;19974;-70
2023/10/04 00:50:53;;;;;;;;;;;12.30;99.90;;;;;;2616678;54;19947;-71
2023/10/04 00:53:26;;;;;;;;;;;12.40;99.90;;;;;;2616393;54;19938;-69
2023/10/04 00:55:57;;;;;;;;;;;12.30;99.90;;;;;;2616872;47;19958;-69
2023/10/04 00:58:28;;;;;;;;;;;12.30;99.90;;;;;;2617399;47;19955;-72
2023/10/04 01:00:57;;;;;;;;;;;12.30;99.90;;;;;;2617179;39;20455;-71
2023/10/04 01:03:32;;;;;;;;;;;12.40;99.90;;;;;;2617114;54;20470;-69
2023/10/04 01:06:03;;;;;;;;;;;12.30;99.90;;;;;;2616925;46;20041;-70
2023/10/04 01:08:33;;;;;;;;;;;12.30;99.90;;;;;;2617252;47;20033;-71
2023/10/04 01:11:02;;;;;;;;;;;12.30;99.90;;;;;;2617474;47;19962;-70
2023/10/04 01:13:33;;;;;;;;;;;12.20;99.90;;;;;;2617808;54;19946;-71
2023/10/04 01:16:06;;;;;;;;;;;12.20;99.90;;;;;;2617161;54;20440;-71
2023/10/04 01:18:38;;;;;;;;;;;12.20;99.90;;;;;;2617126;47;19954;-71
2023/10/04 01:21:09;;;;;;;;;;;12.20;99.90;;;;;;2616880;47;19954;-70
2023/10/04 01:23:45;;;;;;;;;;;12.20;99.90;;;;;;2616567;47;20505;-69
2023/10/04 01:26:25;;;;;;;;;;;12.20;99.90;;;;;;2617489;47;20554;-71
2023/10/04 01:28:55;;;;;;;;;;;12.20;99.90;;;;;;2617634;54;21807;-70
2023/10/04 01:31:25;;;;;;;;;;;12.20;99.90;;;;;;2617018;54;20046;-70
2023/10/04 01:33:55;;;;;;;;;;;12.20;99.90;;;;;;2616320;54;19946;-69
2023/10/04 01:36:25;;;;;;;;;;;12.20;99.90;;;;;;2617144;54;19947;-70
2023/10/04 01:38:57;;;;;;;;;;;12.20;99.90;;;;;;2619509;54;19946;-70
2023/10/04 01:41:28;;;;;;;;;;;12.20;99.90;;;;;;2619711;54;19962;-69
2023/10/04 01:44:01;;;;;;;;;;;12.20;99.90;;;;;;2619041;39;20389;-70
2023/10/04 01:46:30;;;;;;;;;;;12.10;99.90;;;;;;2617485;54;19945;-70
2023/10/04 01:49:00;;;;;;;;;;;12.10;99.90;;;;;;2616960;47;19946;-69
2023/10/04 01:51:30;;;;;;;;;;;12.00;99.90;;;;;;2617180;47;19951;-71
2023/10/04 01:54:03;;;;;;;;;;;12.00;99.90;;;;;;2616594;47;19942;-71
2023/10/04 01:56:33;;;;;;;;;;;11.90;99.90;;;;;;2617002;47;19946;-71
2023/10/04 01:59:05;;;;;;;;;;;11.80;99.90;;;;;;2617024;54;19954;-69
2023/10/04 02:01:34;;;;;;;;;;;11.90;99.90;;;;;;2616862;47;19942;-71
2023/10/04 02:04:05;;;;;;;;;;;11.90;99.90;;;;;;2618228;39;20360;-70
2023/10/04 02:06:36;;;;;;;;;;;11.90;99.90;;;;;;2617537;47;20046;-70
2023/10/04 02:09:11;;;;;;;;;;;11.90;99.90;;;;;;2617119;54;19947;-71
2023/10/04 02:11:41;;;;;;;;;;;11.90;99.90;;;;;;2616699;54;19939;-70
2023/10/04 02:14:11;;;;;;;;;;;11.90;99.90;;;;;;2618552;39;20349;-70
2023/10/04 02:16:41;;;;;;;;;;;10.90;99.90;;;;;;2617622;54;19967;-70
2023/10/04 02:19:12;;;;;;;;;;;11.80;99.90;;;;;;2616364;54;19939;-70
2023/10/04 02:21:41;;;;;;;;;;;12.00;99.90;;;;;;2616374;54;19938;-70
2023/10/04 02:24:14;;;;;;;;;;;11.80;99.90;;;;;;2616507;47;19947;-69
2023/10/04 02:26:43;;;;;;;;;;;11.80;99.90;;;;;;2616296;47;19950;-71
2023/10/04 02:29:13;;;;;;;;;;;11.80;99.90;;;;;;2617467;54;19953;-70
2023/10/04 02:31:44;;;;;;;;;;;11.80;99.90;;;;;;2616728;54;19947;-70
2023/10/04 02:34:19;;;;;;;;;;;11.80;99.90;;;;;;2616803;54;19953;-70
2023/10/04 02:36:48;;;;;;;;;;;11.90;99.90;;;;;;2616695;47;19963;-71
2023/10/04 02:39:23;;;;;;;;;;;11.80;99.90;;;;;;2616221;54;19947;-69
2023/10/04 02:41:53;;;;;;;;;;;11.80;99.90;;;;;;2617371;39;20497;-71
2023/10/04 02:44:23;;;;;;;;;;;11.80;99.90;;;;;;2617996;47;19945;-69
2023/10/04 02:46:53;;;;;;;;;;;11.90;99.90;;;;;;2618291;54;20481;-69
2023/10/04 02:49:23;;;;;;;;;;;11.90;99.90;;;;;;2618840;54;19953;-71
2023/10/04 02:51:54;;;;;;;;;;;11.90;99.90;;;;;;2617707;54;19953;-72
2023/10/04 02:54:27;;;;;;;;;;;11.90;99.90;;;;;;2615701;47;19939;-71
2023/10/04 02:56:58;;;;;;;;;;;11.90;99.90;;;;;;2618329;47;19969;-70
2023/10/04 02:59:27;;;;;;;;;;;11.90;99.90;;;;;;2618215;54;19947;-71
2023/10/04 03:01:57;;;;;;;;;;;11.90;99.90;;;;;;2617382;47;19946;-71
2023/10/04 03:04:27;;;;;;;;;;;11.90;99.90;;;;;;2617451;54;19939;-70
2023/10/04 03:06:57;;;;;;;;;;;11.90;99.90;;;;;;2617793;47;19946;-70
2023/10/04 03:09:29;;;;;;;;;;;11.90;99.90;;;;;;2616910;46;20058;-71
2023/10/04 03:11:59;;;;;;;;;;;11.90;99.90;;;;;;2617913;47;19950;-71
2023/10/04 03:14:30;;;;;;;;;;;12.00;99.90;;;;;;2618103;47;19947;-71
2023/10/04 03:17:06;;;;;;;;;;;12.00;99.90;;;;;;2617664;47;19971;-70
2023/10/04 03:19:37;;;;;;;;;;;12.00;99.90;;;;;;2617891;54;19946;-70
2023/10/04 03:22:10;;;;;;;;;;;12.00;99.90;;;;;;2616015;54;20042;-70
2023/10/04 03:24:42;;;;;;;;;;;12.00;99.90;;;;;;2618041;47;19947;-71
2023/10/04 03:27:12;;;;;;;;;;;12.00;99.90;;;;;;2617547;54;19945;-71
2023/10/04 03:29:41;;;;;;;;;;;12.10;99.90;;;;;;2618188;47;19946;-71
2023/10/04 03:32:11;;;;;;;;;;;12.10;99.90;;;;;;2617006;54;19954;-70
2023/10/04 03:34:41;;;;;;;;;;;12.10;99.90;;;;;;2618174;54;19939;-71
2023/10/04 03:37:13;;;;;;;;;;;12.20;99.90;;;;;;2616890;39;20770;-69
2023/10/04 03:39:46;;;;;;;;;;;12.20;99.90;;;;;;2618291;53;19938;-72
2023/10/04 05:29:13;;;;;;;;;;;12.20;99.90;;;;;;2606124;39;20417;-72
2023/10/04 05:31:43;;;;;;;;;;;12.20;99.90;;;;;;2614648;54;19939;-73
2023/10/04 05:34:14;;;;;;;;;;;12.20;99.90;;;;;;2615841;54;19971;-72
2023/10/04 05:36:46;;;;;;;;;;;12.20;99.90;;;;;;2616986;47;19974;-71
2023/10/04 05:39:15;;;;;;;;;;;12.20;99.90;;;;;;2617206;54;19946;-67
2023/10/04 05:41:45;;;;;;;;;;;12.20;99.90;;;;;;2617976;54;19958;-65
2023/10/04 05:44:17;;;;;;;;;;;12.30;99.90;;;;;;2616329;54;19946;-60
2023/10/04 05:46:47;;;;;;;;;;;12.20;99.90;;;;;;2615934;54;19947;-64
2023/10/04 05:49:17;;;;;;;;;;;12.30;99.90;;;;;;2615681;54;20441;-64
2023/10/04 05:51:47;;;;;;;;;;;12.30;99.90;;;;;;2615391;54;19938;-63
2023/10/04 05:54:17;;;;;;;;;;;12.20;99.90;;;;;;2614492;47;20449;-62
2023/10/04 05:56:46;;;;;;;;;;;12.30;99.90;;;;;;2615856;39;20386;-61
2023/10/04 05:59:19;;;;;;;;;;;12.30;99.90;;;;;;2615476;47;20038;-64
2023/10/04 06:01:50;;;;;;;;;;;12.30;99.90;;;;;;2615089;47;19946;-64
2023/10/04 06:04:20;;;;;;;;;;;12.30;99.90;;;;;;2615578;47;19972;-64
2023/10/04 06:06:50;;;;;;;;;;;12.30;99.90;;;;;;2615352;54;19946;-65
2023/10/04 06:09:28;;;;;;;;;;;12.20;99.90;;;;;;2613927;54;19962;-76
2023/10/04 06:11:58;;;;;;;;;;;12.30;99.90;;;;;;2615460;47;19973;-73
2023/10/04 06:14:30;;;;;;;;;;;12.30;99.90;;;;;;2616187;54;19939;-71
2023/10/04 06:17:00;;;;;;;;;;;12.30;99.90;;;;;;2615732;54;19953;-72
2023/10/04 06:19:30;;;;;;;;;;;12.30;99.90;;;;;;2616634;47;19951;-71
2023/10/04 06:22:00;;;;;;;;;;;12.30;99.90;;;;;;2613897;54;19950;-71
2023/10/04 06:24:30;;;;;;;;;;;12.40;99.90;;;;;;2601056;54;19950;-72
2023/10/04 06:27:00;;;;;;;;;;;12.40;99.90;;;;;;2605688;47;19950;-70
2023/10/04 06:29:33;;;;;;;;;;;12.40;99.90;;;;;;2605495;54;19946;-71
2023/10/04 06:32:03;;;;;;;;;;;12.60;99.90;;;;;;2605349;51;19946;-71
2023/10/04 06:34:32;;;;;;;;;;;12.40;99.90;;;;;;2603273;54;19950;-71
2023/10/04 06:37:02;;;;;;;;;;;12.40;99.90;;;;;;2604781;39;20116;-71
2023/10/04 06:39:33;;;;;;;;;;;12.50;99.90;;;;;;2605335;46;20429;-73
2023/10/04 06:42:04;;;;;;;;;;;12.50;99.90;;;;;;2605023;47;19978;-73
2023/10/04 06:44:36;;;;;;;;;;;12.60;99.90;;;;;;2605408;54;19946;-70
2023/10/04 06:47:06;;;;;;;;;;;12.60;99.90;;;;;;2605840;54;19946;-72
2023/10/04 06:49:35;;;;;;;;;;;12.60;99.90;;;;;;2606342;54;19954;-73
2023/10/04 06:52:05;;;;;;;;;;;12.60;99.90;;;;;;2605591;46;19946;-72
2023/10/04 06:54:35;;;;;;;;;;;12.60;99.90;;;;;;2605322;47;19961;-72
2023/10/04 06:57:05;;;;;;;;;;;12.60;99.90;;;;;;2606966;39;20353;-72
2023/10/04 06:59:38;;;;;;;;;;;12.70;99.90;;;;;;2607030;39;20012;-72
2023/10/04 07:02:09;;;;;;;;;;;12.70;99.90;;;;;;2605714;54;19947;-70
2023/10/04 07:04:39;;;;;;;;;;;12.70;99.90;;;;;;2607423;54;19946;-72
2023/10/04 07:07:08;;;;;;;;;;;12.80;99.90;;;;;;2605462;47;19953;-73
2023/10/04 07:09:38;;;;;;;;;;;12.80;99.90;;;;;;2606023;47;19947;-72
2023/10/04 07:12:09;;;;;;;;;;;12.80;99.90;;;;;;2606026;39;20840;-71
2023/10/04 07:14:43;;;;;;;;;;;12.90;99.90;;;;;;2605790;50;19939;-71
2023/10/04 07:17:14;;;;;;;;;;;12.90;99.90;;;;;;2605698;47;19951;-73
2023/10/04 07:19:44;;;;;;;;;;;13.00;99.90;;;;;;2606457;39;20361;-72
2023/10/04 07:22:14;;;;;;;;;;;13.00;99.90;;;;;;2605579;54;19947;-73
2023/10/04 07:24:43;;;;;;;;;;;13.00;99.90;;;;;;2606365;54;19947;-72
2023/10/04 07:27:13;;;;;;;;;;;13.10;99.90;;;;;;2605856;54;19951;-71
2023/10/04 07:29:46;;;;;;;;;;;13.10;99.90;;;;;;2605758;54;19951;-74
2023/10/04 07:32:15;;;;;;;;;;;13.20;99.90;;;;;;2605255;46;20068;-73
2023/10/04 07:34:45;;;;;;;;;;;13.20;99.90;;;;;;2605868;39;20365;-73
2023/10/04 07:37:15;;;;;;;;;;;13.20;99.90;;;;;;2605663;54;19954;-72
2023/10/04 07:39:45;;;;;;;;;;;13.30;99.90;;;;;;2605854;47;20549;-74
2023/10/04 07:42:15;;;;;;;;;;;13.30;99.90;;;;;;2604731;47;19985;-72
2023/10/04 07:44:47;;;;;;;;;;;13.30;99.90;;;;;;2605010;47;20100;-72
2023/10/04 07:47:17;;;;;;;;;;;13.40;99.90;;;;;;2605854;54;19947;-73
2023/10/04 07:49:47;;;;;;;;;;;13.40;99.90;;;;;;2605125;54;19946;-71
2023/10/04 07:52:17;;;;;;;;;;;13.50;99.90;;;;;;2604857;54;20691;-74
2023/10/04 07:54:47;;;;;;;;;;;13.50;99.90;;;;;;2605976;39;20337;-73
2023/10/04 07:57:16;;;;;;;;;;;13.50;99.90;;;;;;2605625;54;19998;-73
2023/10/04 07:59:50;;;;;;;;;;;13.60;99.90;;;;;;2605249;54;20062;-72
2023/10/04 08:02:20;;;;;;;;;;;13.70;99.90;;;;;;2603952;54;19947;-72
2023/10/04 08:04:50;;;;;;;;;;;13.70;99.90;;;;;;2607316;54;19946;-73
2023/10/04 08:07:20;;;;;;;;;;;13.80;99.90;;;;;;2613230;54;19970;-74
2023/10/04 08:09:52;;;;;;;;;;;13.90;99.90;;;;;;2611316;54;19953;-74
2023/10/04 08:12:23;;;;;;;;;;;13.90;99.90;;;;;;2608601;54;19951;-73
2023/10/04 08:15:00;;;;;;;;;;;14.00;99.90;;;;;;2609397;54;19954;-74
2023/10/04 08:17:30;;;;;;;;;;;14.10;99.90;;;;;;2609678;54;20046;-75
2023/10/04 08:20:01;;;;;;;;;;;14.10;99.90;;;;;;2609192;54;20462;-73
2023/10/04 08:22:31;;;;;;;;;;;14.20;99.90;;;;;;2610197;54;19950;-73
2023/10/04 08:25:00;;;;;;;;;;;14.30;99.90;;;;;;2611075;54;19946;-75
2023/10/04 08:27:31;;;;;;;;;;;14.30;99.90;;;;;;2612608;54;19998;-77
2023/10/04 08:30:05;;;;;;;;;;;14.40;99.90;;;;;;2613382;47;20553;-77
2023/10/04 08:32:35;;;;;;;;;;;14.50;99.90;;;;;;2615379;39;20472;-76
2023/10/04 08:35:05;;;;;;;;;;;14.60;99.90;;;;;;2612818;47;19951;-77
2023/10/04 08:37:35;;;;;;;;;;;14.70;99.90;;;;;;2612065;54;19958;-76
2023/10/04 08:40:10;;;;;;;;;;;14.80;99.90;;;;;;2611340;47;19956;-77
2023/10/04 08:42:41;;;;;;;;;;;14.90;99.90;;;;;;2612818;47;19947;-76
2023/10/04 08:45:17;;;;;;;;;;;14.90;99.90;;;;;;2614032;51;20350;-76
2023/10/04 08:47:50;;;;;;;;;;;15.10;99.90;;;;;;2613975;47;19947;-77
2023/10/04 08:50:23;;;;;;;;;;;15.10;99.90;;;;;;2613331;54;19953;-76
2023/10/04 08:52:55;;;;;;;;;;;15.20;99.90;;;;;;2611866;47;20452;-77
2023/10/04 08:55:26;;;;;;;;;;;15.40;99.90;;;;;;2611834;47;20014;-77
2023/10/04 08:57:57;;;;;;;;;;;15.50;99.90;;;;;;2611827;54;19970;-77
2023/10/04 09:00:32;;;;;;;;;;;15.60;99.90;;;;;;2610860;47;19946;-75
2023/10/04 09:03:04;;;;;;;;;;;15.70;99.90;;;;;;2610441;54;19946;-75
2023/10/04 09:05:36;;;;;;;;;;;15.80;99.90;;;;;;2611699;47;19984;-76
2023/10/04 09:08:07;;;;;;;;;;;15.90;99.90;;;;;;2610663;54;19953;-75
2023/10/04 09:10:38;;;;;;;;;;;15.90;99.90;;;;;;2610236;54;19954;-74
2023/10/04 09:13:09;;;;;;;;;;;16.00;99.90;;;;;;2612847;54;19974;-75
2023/10/04 09:15:42;;;;;;;;;;;16.10;99.90;;;;;;2613818;47;19950;-76
2023/10/04 09:18:12;;;;;;;;;;;16.20;99.90;;;;;;2612651;47;20450;-75
2023/10/04 09:20:42;;;;;;;;;;;16.30;99.90;;;;;;2612472;54;20020;-76
2023/10/04 09:23:20;;;;;;;;;;;16.40;99.90;;;;;;2612067;47;19958;-76
2023/10/04 09:25:55;;;;;;;;;;;16.50;99.90;;;;;;2612091;47;19947;-75
2023/10/04 09:28:39;;;;;;;;;;;16.60;99.90;;;;;;2613302;47;19954;-77
2023/10/04 09:31:17;;;;;;;;;;;16.70;99.90;;;;;;2613336;39;20656;-77
2023/10/04 09:33:47;;;;;;;;;;;16.80;99.90;;;;;;2611899;54;20003;-77
2023/10/04 09:36:32;;;;;;;;;;;16.90;99.90;;;;;;2612533;47;19946;-77
2023/10/04 09:39:12;;;;;;;;;;;17.00;99.90;;;;;;2612261;39;20373;-77
2023/10/04 09:41:44;;;;;;;;;;;17.10;99.90;;;;;;2610371;47;19945;-75
2023/10/04 09:44:20;;;;;;;;;;;17.10;99.90;;;;;;2613626;47;20663;-76
2023/10/04 09:46:54;;;;;;;;;;;17.20;99.90;;;;;;2613377;54;19947;-76
2023/10/04 09:49:24;;;;;;;;;;;17.20;99.90;;;;;;2612100;54;19958;-75
2023/10/04 09:51:58;;;;;;;;;;;17.10;99.90;;;;;;2611642;47;19954;-75
2023/10/04 09:54:29;;;;;;;;;;;17.10;99.90;;;;;;2611922;47;19950;-78
2023/10/04 09:56:59;;;;;;;;;;;17.20;99.90;;;;;;2611382;47;19974;-77
2023/10/04 09:59:31;;;;;;;;;;;17.30;99.90;;;;;;2613598;54;19946;-77
2023/10/04 10:02:05;;;;;;;;;;;17.30;99.90;;;;;;2611129;47;20468;-75
2023/10/04 10:04:36;;;;;;;;;;;17.40;99.90;;;;;;2612614;54;19977;-76
2023/10/04 10:07:09;;;;;;;;;;;17.50;99.90;;;;;;2613642;47;19954;-76
2023/10/04 10:09:51;;;;;;;;;;;17.60;99.90;;;;;;2611022;47;19998;-76
2023/10/04 10:12:31;;;;;;;;;;;17.80;99.90;;;;;;2612923;47;19957;-76
2023/10/04 10:15:04;;;;;;;;;;;17.90;99.90;;;;;;2612182;54;20075;-76
2023/10/04 10:17:36;;;;;;;;;;;18.00;99.90;;;;;;2611308;47;20801;-75
2023/10/04 10:20:09;;;;;;;;;;;18.20;99.90;;;;;;2615464;47;19946;-76
2023/10/04 10:23:09;;;;;;;;;;;18.30;99.90;;;;;;2617547;47;19950;-77
2023/10/04 10:25:41;;;;;;;;;;;18.50;99.90;;;;;;2617010;47;19999;-76
2023/10/04 10:28:22;;;;;;;;;;;18.50;99.90;;;;;;2617131;54;19950;-78
2023/10/04 10:31:01;;;;;;;;;;;18.60;99.90;;;;;;2617048;54;19973;-76
2023/10/04 10:33:34;;;;;;;;;;;18.70;99.90;;;;;;2616910;47;19950;-75
2023/10/04 10:36:05;;;;;;;;;;;18.80;99.90;;;;;;2617339;47;20439;-76
2023/10/04 10:38:48;;;;;;;;;;;18.70;99.90;;;;;;2617933;47;19946;-76
2023/10/04 10:41:34;;;;;;;;;;;18.60;99.90;;;;;;2617698;54;19958;-78
2023/10/04 10:44:19;;;;;;;;;;;18.70;99.90;;;;;;2618140;39;20344;-76
2023/10/04 10:46:57;;;;;;;;;;;18.70;99.90;;;;;;2617865;39;20348;-76
2023/10/04 10:49:44;;;;;;;;;;;18.60;99.90;;;;;;2617644;54;20083;-76
2023/10/04 10:52:23;;;;;;;;;;;18.60;99.90;;;;;;2620123;54;20440;-76
2023/10/04 10:54:54;;;;;;;;;;;18.60;99.90;;;;;;2617628;54;19991;-76
2023/10/04 10:57:24;;;;;;;;;;;18.50;99.90;;;;;;2616994;47;19939;-76
2023/10/04 10:59:56;;;;;;;;;;;18.40;99.90;;;;;;2617295;39;20512;-77
2023/10/04 11:02:27;;;;;;;;;;;18.40;99.90;;;;;;2617167;54;19939;-75
2023/10/04 11:05:00;;;;;;;;;;;18.40;99.90;;;;;;2616971;47;19970;-76
2023/10/04 11:07:30;;;;;;;;;;;18.50;99.90;;;;;;2617530;54;19954;-76
2023/10/04 11:10:00;;;;;;;;;;;18.50;99.90;;;;;;2616951;50;19994;-76
2023/10/04 11:12:34;;;;;;;;;;;18.60;99.90;;;;;;2616992;46;19950;-77
2023/10/04 11:15:04;;;;;;;;;;;18.60;99.90;;;;;;2616866;54;19946;-77
2023/10/04 11:17:35;;;;;;;;;;;18.50;99.90;;;;;;2616353;54;20041;-76
2023/10/04 11:20:13;;;;;;;;;;;18.60;99.90;;;;;;2617015;47;19951;-76
2023/10/04 11:22:44;;;;;;;;;;;18.50;99.90;;;;;;2617032;47;19938;-76
2023/10/04 11:25:15;;;;;;;;;;;18.50;99.90;;;;;;2617622;54;20026;-77
2023/10/04 11:27:46;;;;;;;;;;;18.50;99.90;;;;;;2616730;46;20439;-76
2023/10/04 11:30:17;;;;;;;;;;;18.50;99.90;;;;;;2615574;54;20454;-75
2023/10/04 11:32:47;;;;;;;;;;;18.70;99.90;;;;;;2616923;54;19994;-77
2023/10/04 11:35:21;;;;;;;;;;;18.90;99.90;;;;;;2617525;47;19956;-75
2023/10/04 11:37:52;;;;;;;;;;;19.10;99.90;;;;;;2617358;54;19994;-73
2023/10/04 11:40:27;;;;;;;;;;;19.10;99.90;;;;;;2618586;39;20196;-76
2023/10/04 11:43:01;;;;;;;;;;;19.20;99.90;;;;;;2617672;54;19945;-76
2023/10/04 11:45:32;;;;;;;;;;;19.20;99.90;;;;;;2618214;54;20216;-77
2023/10/04 11:48:05;;;;;;;;;;;19.20;99.90;;;;;;2617864;47;19953;-76
2023/10/04 11:50:49;;;;;;;;;;;19.10;99.90;;;;;;2617826;47;19938;-78
2023/10/04 11:53:31;;;;;;;;;;;19.00;99.90;;;;;;2617129;54;19953;-79
2023/10/04 11:56:01;;;;;;;;;;;19.00;99.90;;;;;;2617060;54;19947;-78
2023/10/04 11:58:31;;;;;;;;;;;19.20;99.90;;;;;;2617268;47;19977;-78
2023/10/04 12:01:08;;;;;;;;;;;19.50;99.90;;;;;;2617237;54;19969;-78
2023/10/04 12:03:38;;;;;;;;;;;19.70;99.90;;;;;;2617609;47;19953;-77
2023/10/04 12:06:13;;;;;;;;;;;20.10;99.90;;;;;;2618026;47;20030;-76
2023/10/04 12:08:43;;;;;;;;;;;20.40;99.90;;;;;;2617636;54;19958;-77
2023/10/04 12:11:21;;;;;;;;;;;20.60;99.90;;;;;;2617696;47;19991;-77
2023/10/04 12:13:52;;;;;;;;;;;20.70;99.90;;;;;;2617431;47;19951;-77
2023/10/04 12:16:22;;;;;;;;;;;20.80;99.90;;;;;;2617781;47;19983;-75
2023/10/04 12:18:52;;;;;;;;;;;20.90;99.90;;;;;;2616064;47;20428;-74
2023/10/04 12:21:24;;;;;;;;;;;21.00;99.90;;;;;;2618074;54;19946;-81
2023/10/04 12:23:54;;;;;;;;;;;21.10;99.90;;;;;;2619294;47;19938;-77
2023/10/04 12:26:25;;;;;;;;;;;21.00;99.90;;;;;;2620935;47;19961;-75
2023/10/04 12:28:55;;;;;;;;;;;21.10;99.90;;;;;;2631216;39;20176;-78
2023/10/04 12:31:24;;;;;;;;;;;21.10;99.90;;;;;;2624557;47;19942;-79
2023/10/04 12:33:56;;;;;;;;;;;21.20;99.90;;;;;;2626154;47;19949;-78
2023/10/04 12:36:29;;;;;;;;;;;21.20;99.90;;;;;;2625854;47;19958;-78
2023/10/04 12:39:16;;;;;;;;;;;21.10;99.90;;;;;;2620955;47;19991;-80
2023/10/04 12:41:46;;;;;;;;;;;21.10;99.90;;;;;;2620495;39;20401;-81
2023/10/04 12:44:16;;;;;;;;;;;21.10;99.90;;;;;;2620170;47;20477;-80
2023/10/04 12:46:47;;;;;;;;;;;21.00;99.90;;;;;;2619731;46;19995;-78
2023/10/04 12:49:18;;;;;;;;;;;21.00;99.90;;;;;;2621768;54;19946;-80
2023/10/04 12:51:51;;;;;;;;;;;21.10;99.90;;;;;;2617398;54;19991;-75
2023/10/04 12:54:23;;;;;;;;;;;21.10;99.90;;;;;;2617672;31;20479;-75
2023/10/04 12:56:55;;;;;;;;;;;20.90;99.90;;;;;;2616028;47;19999;-76
2023/10/04 12:59:26;;;;;;;;;;;20.80;99.90;;;;;;2618031;54;19958;-73
2023/10/04 13:01:57;;;;;;;;;;;20.70;99.90;;;;;;2615732;54;19991;-76
2023/10/04 13:04:27;;;;;;;;;;;20.60;99.90;;;;;;2618104;54;19946;-76
2023/10/04 13:07:01;;;;;;;;;;;20.70;99.90;;;;;;2618859;54;19953;-76
2023/10/04 13:09:32;;;;;;;;;;;20.60;99.90;;;;;;2618921;54;20525;-80
2023/10/04 13:12:24;;;;;;;;;;;20.60;99.90;;;;;;2616649;47;19958;-80
2023/10/04 13:14:55;;;;;;;;;;;20.60;99.90;;;;;;2617006;54;19953;-76
2023/10/04 13:17:25;;;;;;;;;;;20.50;99.90;;;;;;2618103;47;20038;-78
2023/10/04 13:19:55;;;;;;;;;;;20.50;99.90;;;;;;2618784;47;20505;-79
2023/10/04 13:22:28;;;;;;;;;;;20.80;99.90;;;;;;2618625;54;19970;-76
2023/10/04 13:25:09;;;;;;;;;;;20.50;99.90;;;;;;2618582;47;19950;-78
2023/10/04 13:27:47;;;;;;;;;;;20.50;99.90;;;;;;2618842;39;20735;-78
2023/10/04 13:30:17;;;;;;;;;;;20.40;99.90;;;;;;2619116;54;19964;-79
2023/10/04 13:32:48;;;;;;;;;;;20.40;99.90;;;;;;2622762;39;20435;-76
2023/10/04 13:35:20;;;;;;;;;;;20.30;99.90;;;;;;2622655;39;20418;-78
2023/10/04 13:37:53;;;;;;;;;;;20.20;99.90;;;;;;2618284;54;20763;-77
2023/10/04 13:40:23;;;;;;;;;;;20.10;99.90;;;;;;2618181;54;19947;-78
2023/10/04 13:42:53;;;;;;;;;;;20.00;99.90;;;;;;2618710;47;19947;-78
2023/10/04 13:45:27;;;;;;;;;;;20.00;99.90;;;;;;2616271;47;19947;-79
2023/10/04 13:48:03;;;;;;;;;;;19.90;99.90;;;;;;2615958;47;19981;-76
2023/10/04 13:50:34;;;;;;;;;;;20.00;99.90;;;;;;2615640;47;19950;-77
2023/10/04 13:53:09;;;;;;;;;;;19.90;99.90;;;;;;2615933;54;19939;-79
2023/10/04 13:55:40;;;;;;;;;;;19.70;99.90;;;;;;2615584;54;19954;-76
2023/10/04 13:58:14;;;;;;;;;;;19.60;99.90;;;;;;2615331;54;19950;-76
2023/10/04 14:00:45;;;;;;;;;;;19.60;99.90;;;;;;2616150;39;20780;-76
2023/10/04 14:03:16;;;;;;;;;;;19.60;99.90;;;;;;2616269;54;19953;-75
2023/10/04 14:05:45;;;;;;;;;;;19.60;99.90;;;;;;2616599;54;19957;-76
2023/10/04 14:08:18;;;;;;;;;;;19.50;99.90;;;;;;2615333;39;20367;-76
2023/10/04 14:10:49;;;;;;;;;;;19.50;99.90;;;;;;2613927;54;20064;-75
2023/10/04 14:13:21;;;;;;;;;;;19.50;99.90;;;;;;2614818;47;20458;-79
2023/10/04 14:15:55;;;;;;;;;;;19.50;99.90;;;;;;2619650;39;20463;-81
2023/10/04 14:18:28;;;;;;;;;;;19.50;99.90;;;;;;2620766;47;19950;-78
2023/10/04 14:20:59;;;;;;;;;;;19.50;99.90;;;;;;2620819;54;20436;-79
2023/10/04 14:23:31;;;;;;;;;;;19.50;99.90;;;;;;2619806;54;19943;-79
2023/10/04 14:26:01;;;;;;;;;;;19.60;99.90;;;;;;2618518;47;19947;-81
2023/10/04 14:28:32;;;;;;;;;;;19.70;99.90;;;;;;2618896;54;20454;-79
2023/10/04 14:31:03;;;;;;;;;;;19.70;99.90;;;;;;2622382;54;19946;-76
2023/10/04 14:33:33;;;;;;;;;;;19.60;99.90;;;;;;2622962;47;19938;-77
2023/10/04 14:36:03;;;;;;;;;;;19.70;99.90;;;;;;2625333;47;19927;-78
2023/10/04 14:38:36;;;;;;;;;;;19.60;99.90;;;;;;2626708;54;19946;-78
2023/10/04 14:41:06;;;;;;;;;;;19.70;99.90;;;;;;2626207;54;19946;-78
2023/10/04 14:43:36;;;;;;;;;;;19.80;99.90;;;;;;2625143;54;19994;-80
2023/10/04 14:46:08;;;;;;;;;;;20.40;99.90;;;;;;2626296;54;20002;-81
2023/10/04 14:48:38;;;;;;;;;;;20.30;99.90;;;;;;2630616;47;19942;-78
2023/10/04 14:51:11;;;;;;;;;;;20.30;99.90;;;;;;2624421;39;20445;-80
2023/10/04 14:53:45;;;;;;;;;;;20.30;99.90;;;;;;2617895;54;19957;-78
2023/10/04 14:56:16;;;;;;;;;;;20.20;99.90;;;;;;2617337;54;20049;-78
2023/10/04 14:58:46;;;;;;;;;;;20.00;99.90;;;;;;2617093;47;19965;-78
2023/10/04 15:01:23;;;;;;;;;;;19.90;99.90;;;;;;2614680;54;20524;-75
2023/10/04 15:03:57;;;;;;;;;;;19.80;99.90;;;;;;2615487;54;19945;-78
2023/10/04 15:06:29;;;;;;;;;;;19.70;99.90;;;;;;2617076;46;19946;-77
2023/10/04 15:09:03;;;;;;;;;;;19.60;99.90;;;;;;2617425;47;19948;-78
2023/10/04 15:11:33;;;;;;;;;;;19.60;99.90;;;;;;2617083;47;19962;-76
2023/10/04 15:14:06;;;;;;;;;;;19.60;99.90;;;;;;2616095;47;19954;-76
2023/10/04 15:16:36;;;;;;;;;;;19.60;99.90;;;;;;2617017;47;20027;-75
2023/10/04 15:19:06;;;;;;;;;;;19.80;99.90;;;;;;2610352;47;19950;-77
2023/10/04 15:21:37;;;;;;;;;;;19.70;99.90;;;;;;2612909;54;19946;-75
2023/10/04 15:24:14;;;;;;;;;;;19.70;99.90;;;;;;2611198;47;20033;-76
2023/10/04 15:26:44;;;;;;;;;;;19.70;99.90;;;;;;2611697;47;19953;-76
2023/10/04 15:29:15;;;;;;;;;;;19.60;99.90;;;;;;2614725;54;19953;-75
2023/10/04 15:31:46;;;;;;;;;;;19.60;99.90;;;;;;2614617;46;19954;-75
2023/10/04 15:34:16;;;;;;;;;;;19.50;99.90;;;;;;2613456;39;20434;-74
2023/10/04 15:36:47;;;;;;;;;;;19.50;99.90;;;;;;2613545;54;20058;-75
2023/10/04 15:39:22;;;;;;;;;;;19.40;99.90;;;;;;2614980;47;19993;-74
2023/10/04 15:41:53;;;;;;;;;;;19.30;99.90;;;;;;2623312;47;19946;-74
2023/10/04 15:44:23;;;;;;;;;;;19.20;99.90;;;;;;2612696;47;20095;-74
2023/10/04 15:46:53;;;;;;;;;;;19.10;99.90;;;;;;2611805;47;20761;-76
2023/10/04 15:49:23;;;;;;;;;;;19.00;99.90;;;;;;2612254;47;20091;-75
2023/10/04 15:51:54;;;;;;;;;;;19.00;99.90;;;;;;2616529;39;20328;-76
2023/10/04 15:54:27;;;;;;;;;;;19.30;99.90;;;;;;2615651;54;19947;-76
2023/10/04 15:56:57;;;;;;;;;;;18.80;99.90;;;;;;2615136;47;19946;-77
2023/10/04 15:59:27;;;;;;;;;;;18.70;99.90;;;;;;2613484;47;20579;-76
2023/10/04 16:01:57;;;;;;;;;;;18.60;99.90;;;;;;2611783;47;19950;-75
2023/10/04 16:04:27;;;;;;;;;;;18.50;99.90;;;;;;2610778;47;20872;-75
2023/10/04 16:06:57;;;;;;;;;;;18.40;99.90;;;;;;2611365;54;19973;-74
2023/10/04 16:09:29;;;;;;;;;;;18.20;99.90;;;;;;2612418;47;20067;-77
2023/10/04 16:11:59;;;;;;;;;;;18.10;99.90;;;;;;2613913;54;19947;-76
2023/10/04 16:14:31;;;;;;;;;;;18.10;99.90;;;;;;2615486;47;20529;-77
2023/10/04 16:17:01;;;;;;;;;;;18.00;99.90;;;;;;2617066;54;19999;-76
2023/10/04 16:19:32;;;;;;;;;;;18.00;99.90;;;;;;2615384;47;19950;-75
2023/10/04 16:22:02;;;;;;;;;;;17.90;99.90;;;;;;2614606;47;19947;-77
2023/10/04 16:24:35;;;;;;;;;;;17.70;99.90;;;;;;2615512;39;20296;-76
2023/10/04 16:27:06;;;;;;;;;;;17.70;99.90;;;;;;2615524;54;19950;-76
2023/10/04 16:29:36;;;;;;;;;;;17.60;99.90;;;;;;2616163;31;20397;-76